createdAt,value
2017-11-09T00:02:07.839Z,16.23
2017-11-09T00:04:57.582Z,15.20
2017-11-09T00:07:26.460Z,16.00
2017-11-09T00:09:55.320Z,16.17
2017-11-09T00:12:24.183Z,16.67
2017-11-09T00:14:54.842Z,18.20
2017-11-09T00:17:23.718Z,15.17
2017-11-09T00:19:52.583Z,16.87
2017-11-09T00:22:21.476Z,16.60
2017-11-09T00:24:50.339Z,15.30
2017-11-09T00:27:19.221Z,17.43
2017-11-09T00:29:48.114Z,16.20
2017-11-09T00:32:17.027Z,17.87
2017-11-09T00:34:45.906Z,18.57
2017-11-09T00:37:14.807Z,17.07
2017-11-09T00:39:43.662Z,18.00
2017-11-09T00:42:12.616Z,17.87
2017-11-09T00:44:41.481Z,17.40
2017-11-09T00:47:10.454Z,16.43
2017-11-09T00:49:39.387Z,17.73
2017-11-09T00:52:08.271Z,17.60
2017-11-09T00:54:37.140Z,17.57
2017-11-09T00:57:07.752Z,15.80
2017-11-09T00:59:36.640Z,18.30
2017-11-09T01:02:05.498Z,16.70
2017-11-09T01:04:34.377Z,15.93
2017-11-09T01:07:03.227Z,18.07
2017-11-09T01:09:32.095Z,17.07
2017-11-09T01:12:00.957Z,15.97
2017-11-09T01:14:29.819Z,16.70
2017-11-09T01:16:58.750Z,15.90
2017-11-09T01:19:27.609Z,15.63
2017-11-09T01:21:56.492Z,17.20
2017-11-09T01:24:25.357Z,18.10
2017-11-09T01:26:54.228Z,15.67
2017-11-09T01:29:23.128Z,16.70
2017-11-09T01:31:51.994Z,17.47
2017-11-09T01:34:21.571Z,19.13
2017-11-09T01:36:50.492Z,16.07
2017-11-09T01:39:19.355Z,17.80
2017-11-09T01:41:48.230Z,19.87
2017-11-09T01:44:17.134Z,18.17
2017-11-09T01:46:45.996Z,17.70
2017-11-09T01:49:14.904Z,17.63
2017-11-09T01:51:43.770Z,17.97
2017-11-09T01:54:12.670Z,17.17
2017-11-09T01:56:41.547Z,16.83
2017-11-09T01:59:10.450Z,17.90
2017-11-09T02:01:39.322Z,18.03
2017-11-09T02:04:08.250Z,17.53
2017-11-09T02:06:41.959Z,16.60
2017-11-09T02:09:10.835Z,17.27
2017-11-09T02:11:39.713Z,18.10
2017-11-09T02:14:08.615Z,16.50
2017-11-09T02:16:37.479Z,16.67
2017-11-09T02:19:06.346Z,16.80
2017-11-09T02:21:35.604Z,17.20
2017-11-09T02:24:04.500Z,17.03
2017-11-09T02:26:33.421Z,17.20
2017-11-09T02:29:02.284Z,16.47
2017-11-09T02:31:31.169Z,17.10
2017-11-09T02:34:00.040Z,18.83
2017-11-09T02:36:28.925Z,16.13
2017-11-09T02:38:57.799Z,17.20
2017-11-09T02:41:26.726Z,17.73
2017-11-09T02:43:55.612Z,17.23
2017-11-09T02:46:24.473Z,15.50
2017-11-09T02:48:53.377Z,16.50
2017-11-09T02:51:22.240Z,16.20
2017-11-09T02:53:51.141Z,15.77
2017-11-09T02:56:20.004Z,16.73
2017-11-09T02:58:48.878Z,15.93
2017-11-09T03:01:17.734Z,15.03
2017-11-09T03:03:46.614Z,16.00
2017-11-09T03:06:15.502Z,15.50
2017-11-09T03:08:44.382Z,16.80
2017-11-09T03:11:13.243Z,15.57
2017-11-09T03:13:42.116Z,16.93
2017-11-09T03:16:10.982Z,15.83
2017-11-09T03:18:39.911Z,14.23
2017-11-09T03:21:08.777Z,17.17
2017-11-09T03:23:37.660Z,17.33
2017-11-09T03:26:06.535Z,16.63
2017-11-09T03:28:35.436Z,16.47
2017-11-09T03:31:04.322Z,16.23
2017-11-09T03:33:33.207Z,17.33
2017-11-09T03:36:02.088Z,16.67
2017-11-09T03:38:30.955Z,17.93
2017-11-09T03:40:59.862Z,16.37
2017-11-09T03:43:28.715Z,17.13
2017-11-09T03:45:57.599Z,18.03
2017-11-09T03:48:26.450Z,17.33
2017-11-09T03:50:55.348Z,17.60
2017-11-09T03:53:24.217Z,17.00
2017-11-09T03:55:53.108Z,19.13
2017-11-09T03:58:21.975Z,20.67
2017-11-09T04:00:50.854Z,17.70
2017-11-09T04:03:19.721Z,17.37
2017-11-09T04:05:48.594Z,17.60
2017-11-09T04:08:17.485Z,16.70
2017-11-09T04:10:46.413Z,18.50
2017-11-09T04:13:15.297Z,18.20
2017-11-09T04:15:44.192Z,17.37
2017-11-09T04:18:13.077Z,17.73
2017-11-09T04:20:41.952Z,18.40
2017-11-09T04:23:10.819Z,17.83
2017-11-09T04:25:39.742Z,17.37
2017-11-09T04:28:08.639Z,17.50
2017-11-09T04:30:37.546Z,18.07
2017-11-09T04:33:06.447Z,18.57
2017-11-09T04:35:35.333Z,19.63
2017-11-09T04:38:04.208Z,17.33
2017-11-09T04:40:33.073Z,19.67
2017-11-09T04:43:01.961Z,19.47
2017-11-09T04:45:30.851Z,16.77
2017-11-09T04:47:59.752Z,17.20
2017-11-09T04:50:28.610Z,16.87
2017-11-09T04:52:57.619Z,15.03
2017-11-09T04:55:26.472Z,18.00
2017-11-09T04:57:55.388Z,16.57
2017-11-09T05:00:24.298Z,18.70
2017-11-09T05:02:53.174Z,19.67
2017-11-09T05:05:22.074Z,17.80
2017-11-09T05:07:50.933Z,17.50
2017-11-09T05:10:19.801Z,17.03
2017-11-09T05:12:48.684Z,16.50
2017-11-09T05:15:17.567Z,17.57
2017-11-09T05:17:46.424Z,19.57
2017-11-09T05:20:15.292Z,18.57
2017-11-09T05:22:44.179Z,20.07
2017-11-09T05:25:13.099Z,17.30
2017-11-09T05:27:41.960Z,19.07
2017-11-09T05:30:10.857Z,17.83
2017-11-09T05:32:39.746Z,18.10
2017-11-09T05:35:08.613Z,15.67
2017-11-09T05:37:37.491Z,15.30
2017-11-09T05:40:06.357Z,19.40
2017-11-09T05:42:35.237Z,17.00
2017-11-09T05:45:04.115Z,16.47
2017-11-09T05:47:33.020Z,16.93
2017-11-09T05:50:01.919Z,15.40
2017-11-09T05:52:30.821Z,15.80
2017-11-09T05:54:59.679Z,16.80
2017-11-09T05:57:28.640Z,15.70
2017-11-09T05:59:57.534Z,15.80
2017-11-09T06:02:26.406Z,16.33
2017-11-09T06:04:55.303Z,15.97
2017-11-09T06:07:24.156Z,15.80
2017-11-09T06:09:53.048Z,17.37
2017-11-09T06:12:21.902Z,17.17
2017-11-09T06:14:50.778Z,17.77
2017-11-09T06:17:19.690Z,17.90
2017-11-09T06:19:48.597Z,18.00
2017-11-09T06:22:17.472Z,18.50
2017-11-09T06:24:46.354Z,17.93
2017-11-09T06:27:15.275Z,18.20
2017-11-09T06:29:44.170Z,18.70
2017-11-09T06:32:13.078Z,18.97
2017-11-09T06:34:41.975Z,16.73
2017-11-09T06:37:10.893Z,17.10
2017-11-09T06:39:39.764Z,16.70
2017-11-09T06:42:08.672Z,17.93
2017-11-09T06:44:37.589Z,18.97
2017-11-09T06:47:06.473Z,19.70
2017-11-09T06:49:35.377Z,18.90
2017-11-09T06:52:04.305Z,19.07
2017-11-09T06:54:33.178Z,18.03
2017-11-09T06:57:02.073Z,17.70
2017-11-09T06:59:30.941Z,18.57
2017-11-09T07:01:59.812Z,17.40
2017-11-09T07:04:28.688Z,19.33
2017-11-09T07:06:57.563Z,19.43
2017-11-09T07:09:26.468Z,19.80
2017-11-09T07:11:55.325Z,19.10
2017-11-09T07:14:24.204Z,18.20
2017-11-09T07:16:53.079Z,19.00
2017-11-09T07:19:21.971Z,17.80
2017-11-09T07:21:50.820Z,18.30
2017-11-09T07:24:19.702Z,18.13
2017-11-09T07:26:48.577Z,18.60
2017-11-09T07:29:17.548Z,18.53
2017-11-09T07:31:46.416Z,20.60
2017-11-09T07:34:15.340Z,20.53
2017-11-09T07:36:44.219Z,18.83
2017-11-09T07:39:13.108Z,22.03
2017-11-09T07:41:41.986Z,18.70
2017-11-09T07:44:10.952Z,19.33
2017-11-09T07:46:40.118Z,19.03
2017-11-09T07:49:09.018Z,19.40
2017-11-09T07:51:37.911Z,19.58
2017-11-09T07:54:06.876Z,21.00
2017-11-09T07:56:35.742Z,18.93
2017-11-09T07:59:04.661Z,18.40
2017-11-09T08:01:33.542Z,18.60
2017-11-09T08:04:02.446Z,18.73
2017-11-09T08:06:31.313Z,45.30
2017-11-09T08:09:00.226Z,30.27
2017-11-09T08:11:29.112Z,26.27
2017-11-09T08:13:57.996Z,18.57
2017-11-09T08:16:26.860Z,18.33
2017-11-09T08:18:55.768Z,18.20
2017-11-09T08:21:24.627Z,19.03
2017-11-09T08:23:53.575Z,17.87
2017-11-09T08:26:23.109Z,19.07
2017-11-09T08:28:53.529Z,19.30
2017-11-09T08:31:24.779Z,19.70
2017-11-09T08:33:53.627Z,20.00
2017-11-09T08:36:22.496Z,17.83
2017-11-09T08:38:51.348Z,17.50
2017-11-09T08:41:20.234Z,16.70
2017-11-09T08:43:49.091Z,17.33
2017-11-09T08:46:17.967Z,15.83
2017-11-09T08:48:46.832Z,17.97
2017-11-09T08:51:15.694Z,17.03
2017-11-09T08:53:44.584Z,16.60
2017-11-09T08:56:13.465Z,15.17
2017-11-09T08:58:43.075Z,16.93
2017-11-09T09:01:11.999Z,14.87
2017-11-09T09:03:40.867Z,15.87
2017-11-09T09:06:09.729Z,13.73
2017-11-09T09:08:38.664Z,13.57
2017-11-09T09:11:07.528Z,14.30
2017-11-09T09:13:36.412Z,17.60
2017-11-09T09:16:05.282Z,18.33
2017-11-09T09:18:34.172Z,20.33
2017-11-09T09:21:08.891Z,29.27
2017-11-09T09:23:41.514Z,15.90
2017-11-09T09:26:20.301Z,15.10
2017-11-09T09:29:03.098Z,13.23
2017-11-09T09:31:32.934Z,12.87
2017-11-09T09:34:02.643Z,14.57
2017-11-09T09:36:33.995Z,13.53
2017-11-09T09:39:04.935Z,13.23
2017-11-09T09:41:33.790Z,14.20
2017-11-09T09:44:02.677Z,14.23
2017-11-09T09:46:31.558Z,14.30
2017-11-09T09:49:00.618Z,13.87
2017-11-09T09:51:29.484Z,13.60
2017-11-09T09:53:58.387Z,13.40
2017-11-09T09:56:27.267Z,13.97
2017-11-09T09:58:56.147Z,13.10
2017-11-09T10:01:25.033Z,13.73
2017-11-09T10:03:53.908Z,14.23
2017-11-09T10:06:22.793Z,11.70
2017-11-09T10:08:51.675Z,11.07
2017-11-09T10:11:20.542Z,9.77
2017-11-09T10:13:49.417Z,10.57
2017-11-09T10:16:18.287Z,8.97
2017-11-09T10:18:47.160Z,10.77
2017-11-09T10:21:16.054Z,10.50
2017-11-09T10:23:44.930Z,9.37
2017-11-09T10:26:13.832Z,9.77
2017-11-09T10:28:42.716Z,10.40
2017-11-09T10:31:11.577Z,8.20
2017-11-09T10:33:40.469Z,8.73
2017-11-09T10:36:09.345Z,8.53
2017-11-09T10:38:38.238Z,7.83
2017-11-09T10:41:07.107Z,9.47
2017-11-09T10:43:35.985Z,12.13
2017-11-09T10:46:04.849Z,11.00
2017-11-09T10:48:33.961Z,10.30
2017-11-09T10:51:02.885Z,10.70
2017-11-09T10:53:31.824Z,9.13
2017-11-09T10:56:00.717Z,9.20
2017-11-09T10:58:29.568Z,10.07
2017-11-09T11:00:58.460Z,9.07
2017-11-09T11:03:27.381Z,8.43
2017-11-09T11:05:56.279Z,9.70
2017-11-09T11:08:25.769Z,8.77
2017-11-09T11:10:54.640Z,9.10
2017-11-09T11:13:24.188Z,8.23
2017-11-09T11:15:53.111Z,7.37
2017-11-09T11:18:22.014Z,6.87
2017-11-09T11:20:50.887Z,5.87
2017-11-09T11:23:19.736Z,5.30
2017-11-09T11:25:48.603Z,7.60
2017-11-09T11:28:17.471Z,7.27
2017-11-09T11:30:46.339Z,7.00
2017-11-09T11:33:15.224Z,8.03
2017-11-09T11:35:44.084Z,7.23
2017-11-09T11:38:12.952Z,6.63
2017-11-09T11:40:41.801Z,5.43
2017-11-09T11:43:10.664Z,6.10
2017-11-09T11:45:39.519Z,6.70
2017-11-09T11:48:08.435Z,6.60
2017-11-09T11:50:37.308Z,5.83
2017-11-09T11:53:06.192Z,6.33
2017-11-09T11:55:35.076Z,5.83
2017-11-09T11:58:04.111Z,7.50
2017-11-09T12:00:32.971Z,7.93
2017-11-09T12:03:01.831Z,7.57
2017-11-09T12:05:30.728Z,8.13
2017-11-09T12:07:59.593Z,8.43
2017-11-09T12:10:28.574Z,6.70
2017-11-09T12:12:57.470Z,7.13
2017-11-09T12:15:26.392Z,8.87
2017-11-09T12:17:55.247Z,10.57
2017-11-09T12:20:24.145Z,10.57
2017-11-09T12:22:53.003Z,11.13
2017-11-09T12:25:21.874Z,9.70
2017-11-09T12:27:50.740Z,10.23
2017-11-09T12:30:19.628Z,12.60
2017-11-09T12:32:48.521Z,12.70
2017-11-09T12:35:17.428Z,10.07
2017-11-09T12:37:46.271Z,9.97
2017-11-09T12:40:15.140Z,11.53
2017-11-09T12:42:44.015Z,10.17
2017-11-09T12:45:12.906Z,11.63
2017-11-09T12:47:41.789Z,11.50
2017-11-09T12:50:10.652Z,10.37
2017-11-09T12:52:39.533Z,10.10
2017-11-09T12:55:08.405Z,9.90
2017-11-09T12:57:37.274Z,9.90
2017-11-09T13:00:06.137Z,9.50
2017-11-09T13:02:35.048Z,10.50
2017-11-09T13:05:03.919Z,9.20
2017-11-09T13:07:32.786Z,10.30
2017-11-09T13:10:01.678Z,10.23
2017-11-09T13:12:30.580Z,11.30
2017-11-09T13:14:59.453Z,13.20
2017-11-09T13:17:28.314Z,10.77
2017-11-09T13:19:57.208Z,12.67
2017-11-09T13:22:26.057Z,11.13
2017-11-09T13:24:54.950Z,11.23
2017-11-09T13:27:23.803Z,13.20
2017-11-09T13:29:52.722Z,12.77
2017-11-09T13:32:21.596Z,12.53
2017-11-09T13:34:50.467Z,10.33
2017-11-09T13:37:19.357Z,11.67
2017-11-09T13:39:48.230Z,10.83
2017-11-09T13:42:17.109Z,10.50
2017-11-09T13:44:45.973Z,10.87
2017-11-09T13:47:14.860Z,10.43
2017-11-09T13:49:43.724Z,11.73
2017-11-09T13:52:12.807Z,12.37
2017-11-09T13:54:41.689Z,10.47
2017-11-09T13:57:10.568Z,12.90
2017-11-09T13:59:39.449Z,11.20
2017-11-09T14:02:08.320Z,11.80
2017-11-09T14:04:37.219Z,12.20
2017-11-09T14:07:06.088Z,11.50
2017-11-09T14:09:34.980Z,13.30
2017-11-09T14:12:03.840Z,12.33
2017-11-09T14:14:32.715Z,12.10
2017-11-09T14:17:01.581Z,11.87
2017-11-09T14:19:30.521Z,12.47
2017-11-09T14:21:59.388Z,12.90
2017-11-09T14:24:28.280Z,11.77
2017-11-09T14:26:57.147Z,11.90
2017-11-09T14:29:25.994Z,14.53
2017-11-09T14:31:54.884Z,12.13
2017-11-09T14:34:23.755Z,14.00
2017-11-09T14:36:52.647Z,12.70
2017-11-09T14:39:21.514Z,12.40
2017-11-09T14:41:50.404Z,12.77
2017-11-09T14:44:19.279Z,11.90
2017-11-09T14:46:48.179Z,13.00
2017-11-09T14:49:17.042Z,12.73
2017-11-09T14:51:45.949Z,12.80
2017-11-09T14:54:14.836Z,13.27
2017-11-09T14:56:43.694Z,12.40
2017-11-09T14:59:12.581Z,12.60
2017-11-09T15:01:41.508Z,12.63
2017-11-09T15:04:10.395Z,14.37
2017-11-09T15:06:39.256Z,14.27
2017-11-09T15:09:08.141Z,12.57
2017-11-09T15:11:36.993Z,12.77
2017-11-09T15:14:05.864Z,13.50
2017-11-09T15:16:34.724Z,14.87
2017-11-09T15:19:03.613Z,13.70
2017-11-09T15:21:32.468Z,11.93
2017-11-09T15:24:01.394Z,13.60
2017-11-09T15:26:30.273Z,12.50
2017-11-09T15:28:59.140Z,13.37
2017-11-09T15:31:28.016Z,13.73
2017-11-09T15:33:56.897Z,14.30
2017-11-09T15:36:28.668Z,15.07
2017-11-09T15:38:57.557Z,13.77
2017-11-09T15:41:26.422Z,14.80
2017-11-09T15:43:55.301Z,16.60
2017-11-09T15:46:24.187Z,15.10
2017-11-09T15:48:53.056Z,14.77
2017-11-09T15:51:21.932Z,14.07
2017-11-09T15:53:50.807Z,14.63
2017-11-09T15:56:20.229Z,15.67
2017-11-09T15:58:49.149Z,16.20
2017-11-09T16:01:18.097Z,13.83
2017-11-09T16:03:46.965Z,16.33
2017-11-09T16:06:15.851Z,14.83
2017-11-09T16:08:44.760Z,14.27
2017-11-09T16:11:13.629Z,15.70
2017-11-09T16:13:42.524Z,12.47
2017-11-09T16:16:11.431Z,14.00
2017-11-09T16:18:43.261Z,15.57
2017-11-09T16:21:12.154Z,14.87
2017-11-09T16:23:41.027Z,14.67
2017-11-09T16:26:09.902Z,14.90
2017-11-09T16:28:38.788Z,16.60
2017-11-09T16:31:07.658Z,14.37
2017-11-09T16:33:36.511Z,14.00
2017-11-09T16:36:05.384Z,16.42
2017-11-09T16:38:34.289Z,14.00
2017-11-09T16:41:03.182Z,14.93
2017-11-09T16:43:32.047Z,16.20
2017-11-09T16:46:00.913Z,15.47
2017-11-09T16:48:29.795Z,17.60
2017-11-09T16:50:58.652Z,16.00
2017-11-09T16:53:27.561Z,15.87
2017-11-09T16:55:56.434Z,15.10
2017-11-09T16:58:25.312Z,15.87
2017-11-09T17:00:54.190Z,17.93
2017-11-09T17:03:23.081Z,17.77
2017-11-09T17:05:51.940Z,16.97
2017-11-09T17:08:20.826Z,16.23
2017-11-09T17:10:49.706Z,16.00
2017-11-09T17:13:18.639Z,18.30
2017-11-09T17:15:47.522Z,18.07
2017-11-09T17:18:22.095Z,17.43
2017-11-09T17:20:50.954Z,19.80
2017-11-09T17:23:19.821Z,16.80
2017-11-09T17:25:48.709Z,18.00
2017-11-09T17:28:17.603Z,18.10
2017-11-09T17:30:46.467Z,18.70
2017-11-09T17:33:15.399Z,15.73
2017-11-09T17:35:44.264Z,16.57
2017-11-09T17:38:13.138Z,17.43
2017-11-09T17:40:42.010Z,17.13
2017-11-09T17:43:10.875Z,15.13
2017-11-09T17:45:39.747Z,18.63
2017-11-09T17:48:08.595Z,15.77
2017-11-09T17:50:37.471Z,16.17
2017-11-09T17:53:06.329Z,16.73
2017-11-09T17:55:35.201Z,15.90
2017-11-09T17:58:04.072Z,17.80
2017-11-09T18:00:32.954Z,21.00
2017-11-09T18:03:04.771Z,18.00
2017-11-09T18:05:33.672Z,17.40
2017-11-09T18:08:02.536Z,17.87
2017-11-09T18:10:31.511Z,17.30
2017-11-09T18:13:00.365Z,18.00
2017-11-09T18:15:29.252Z,17.40
2017-11-09T18:17:58.133Z,19.40
2017-11-09T18:20:27.065Z,18.27
2017-11-09T18:23:02.555Z,19.50
2017-11-09T18:25:31.485Z,18.63
2017-11-09T18:28:00.349Z,19.77
2017-11-09T18:30:29.211Z,19.43
2017-11-09T18:32:58.080Z,19.70
2017-11-09T18:35:26.933Z,20.53
2017-11-09T18:37:55.815Z,18.10
2017-11-09T18:40:24.701Z,21.90
2017-11-09T18:42:53.594Z,20.30
2017-11-09T18:45:22.639Z,18.57
2017-11-09T18:47:51.588Z,19.90
2017-11-09T18:50:20.465Z,21.00
2017-11-09T18:52:49.555Z,19.97
2017-11-09T18:55:18.422Z,18.90
2017-11-09T18:57:47.284Z,21.43
2017-11-09T19:00:16.241Z,20.57
2017-11-09T19:02:47.907Z,20.30
2017-11-09T19:05:16.792Z,20.63
2017-11-09T19:07:45.664Z,24.13
2017-11-09T19:10:14.557Z,21.00
2017-11-09T19:12:43.416Z,20.27
2017-11-09T19:15:12.339Z,20.77
2017-11-09T19:17:41.207Z,19.77
2017-11-09T19:20:10.061Z,18.93
2017-11-09T19:22:38.972Z,17.43
2017-11-09T19:25:07.916Z,17.23
2017-11-09T19:27:36.773Z,17.80
2017-11-09T19:30:05.656Z,21.07
2017-11-09T19:32:34.531Z,18.60
2017-11-09T19:35:03.551Z,19.60
2017-11-09T19:37:32.431Z,18.43
2017-11-09T19:40:01.284Z,19.73
2017-11-09T19:42:30.156Z,18.37
2017-11-09T19:44:59.029Z,19.20
2017-11-09T19:47:27.913Z,19.53
2017-11-09T19:49:56.783Z,20.57
2017-11-09T19:52:25.660Z,17.07
2017-11-09T19:54:54.532Z,17.83
2017-11-09T19:57:23.443Z,19.43
2017-11-09T19:59:52.323Z,19.40
2017-11-09T20:02:21.249Z,18.20
2017-11-09T20:04:50.135Z,18.20
2017-11-09T20:07:19.018Z,19.67
2017-11-09T20:09:47.875Z,20.47
2017-11-09T20:12:16.770Z,18.83
2017-11-09T20:14:45.646Z,20.47
2017-11-09T20:17:14.580Z,20.67
2017-11-09T20:19:43.433Z,20.63
2017-11-09T20:22:12.353Z,19.20
2017-11-09T20:24:41.221Z,21.43
2017-11-09T20:27:10.148Z,19.30
2017-11-09T20:29:39.038Z,19.40
2017-11-09T20:32:07.904Z,19.53
2017-11-09T20:34:36.847Z,19.57
2017-11-09T20:37:05.724Z,21.27
2017-11-09T20:39:34.649Z,18.70
2017-11-09T20:42:03.506Z,18.03
2017-11-09T20:44:32.374Z,18.40
2017-11-09T20:47:01.240Z,17.70
2017-11-09T20:49:34.094Z,20.70
2017-11-09T20:52:02.972Z,17.70
2017-11-09T20:54:31.890Z,21.33
2017-11-09T20:57:00.747Z,20.77
2017-11-09T20:59:29.630Z,20.73
2017-11-09T21:01:58.510Z,19.97
2017-11-09T21:04:27.388Z,22.10
2017-11-09T21:06:56.263Z,23.23
2017-11-09T21:09:25.124Z,18.70
2017-11-09T21:11:54.034Z,19.57
2017-11-09T21:14:22.887Z,22.17
2017-11-09T21:16:51.778Z,19.70
2017-11-09T21:19:20.652Z,19.90
2017-11-09T21:21:49.557Z,19.20
2017-11-09T21:24:18.422Z,20.40
2017-11-09T21:26:47.294Z,21.80
2017-11-09T21:29:16.259Z,21.80
2017-11-09T21:31:45.193Z,19.70
2017-11-09T21:34:14.097Z,19.87
2017-11-09T21:36:42.961Z,19.27
2017-11-09T21:39:11.830Z,19.43
2017-11-09T21:41:40.727Z,19.90
2017-11-09T21:44:09.599Z,19.30
2017-11-09T21:46:38.468Z,21.00
2017-11-09T21:49:07.583Z,21.40
2017-11-09T21:51:36.448Z,20.47
2017-11-09T21:54:05.861Z,19.10
2017-11-09T21:56:34.750Z,19.77
2017-11-09T21:59:03.612Z,21.13
2017-11-09T22:01:32.525Z,19.30
2017-11-09T22:04:01.385Z,20.80
2017-11-09T22:06:30.257Z,34.77
2017-11-09T22:08:59.116Z,21.30
2017-11-09T22:11:28.004Z,19.40
2017-11-09T22:13:56.866Z,21.93
2017-11-09T22:16:25.743Z,19.67
2017-11-09T22:18:54.644Z,21.03
2017-11-09T22:21:23.763Z,20.10
2017-11-09T22:23:52.675Z,20.37
2017-11-09T22:26:21.532Z,21.37
2017-11-09T22:28:50.415Z,19.60
2017-11-09T22:31:19.262Z,19.27
2017-11-09T22:33:48.154Z,18.50
2017-11-09T22:36:17.012Z,20.03
2017-11-09T22:38:45.889Z,21.67
2017-11-09T22:41:14.777Z,20.33
2017-11-09T22:43:43.682Z,19.83
2017-11-09T22:46:12.543Z,20.27
2017-11-09T22:48:41.416Z,19.00
2017-11-09T22:51:10.308Z,19.70
2017-11-09T22:53:39.164Z,23.60
2017-11-09T22:56:08.064Z,33.27
2017-11-09T22:58:36.953Z,22.93
2017-11-09T23:01:05.987Z,20.33
2017-11-09T23:03:34.890Z,19.70
2017-11-09T23:06:03.780Z,19.13
2017-11-09T23:08:32.662Z,19.10
2017-11-09T23:11:01.564Z,20.00
2017-11-09T23:13:30.537Z,22.00
2017-11-09T23:15:59.412Z,19.33
2017-11-09T23:18:28.262Z,19.43
2017-11-09T23:20:57.156Z,19.40
2017-11-09T23:23:26.020Z,19.20
2017-11-09T23:25:54.902Z,19.30
2017-11-09T23:28:23.793Z,17.53
2017-11-09T23:30:52.667Z,18.50
2017-11-09T23:33:21.532Z,18.50
2017-11-09T23:35:50.412Z,18.03
2017-11-09T23:38:19.270Z,19.00
2017-11-09T23:40:48.205Z,20.63
2017-11-09T23:43:17.076Z,18.63
2017-11-09T23:45:45.939Z,19.13
2017-11-09T23:48:14.821Z,18.13
2017-11-09T23:50:43.683Z,18.03
2017-11-09T23:53:12.583Z,18.90
2017-11-09T23:55:41.455Z,18.40
2017-11-09T23:58:10.338Z,17.50
